Oxford, IN (47971)

6:38 AM EDT on June 02, 2015 (GMT -0400)
Oxford | | Change Station
CLOSE
Current Station
Personal Weather Station
Location: Oxford, IN
Elevation: 732 ft
Nearby Weather Stations

Elev 732 ft 40.52 °N, 87.24 °W | Updated 7 minutes ago

Clear
Clear
48.4 °F
Feels Like 48 °F
N
0.0
Wind Variable Wind from NNE

Today
High -- | Low -- °F
--% Chance of Precip.
Yesterday
High -- | Low -- °F
Precip. -- in
6:20 AM 9:13 PM
Full, 100% visible
Pressure 30.17 in
Visibility 8.0 miles
Clouds Clear
Windchill 48 °F
Dew Point 45 °F
Humidity 88%
Rainfall 0.00 in
Snow Depth Not available.
UV 0 out of 12
Pollen 7.20 out of 12
Air Quality Not available.
Flu Activity No Activity
METAR KLAF 020954Z AUTO 03004KT 8SM CLR 08/07 A3017 RMK AO2 SLP214 T00830072

More Conditions Fewer Conditions

Pressure 30.17 in
Visibility 8.0 miles
Clouds Clear
Windchill 48 °F
Dew Point 45 °F
Humidity 88%
Rainfall 0.00 in
Snow Depth Not available.
UV 0 out of 12
Pollen 7.20 out of 12
Air Quality Not available.
Flu Activity No Activity
METAR KLAF 020954Z AUTO 03004KT 8SM CLR 08/07 A3017 RMK AO2 SLP214 T00830072

More Conditions Fewer Conditions

10-Day Weather Forecast

Almanac

Astronomy

Jun. 02, 2015 Rise Set
Actual Time
Civil Twilight
Nautical Twilight
Astronomical Twilight
Moon
Length of Visible Light
Length of Day
Tomorrow will be .
, % of the Moon is Illuminated

Today's Extremes

State Highs State Lows

Community

WunderPhotos

Upload Photos

1,825,902 photos uploaded!

WunderBlogs® & News

Nearby

Air Quality

  Air Quality AQ Index Pollutant
Not available.

Snow Depth

Station Depth Elevation

Earthquake Activity

City Distance Mag. Time & Date
Minimum magnitude displayed is 2.5.

Coastal Water Temperatures

Place Temperature

Stations

Nearby Weather Stations

Station Location Temp. Windchill Dew Point Humidity Wind Precip. Elev Updated Type